Динамо

Карта отелей и гостиниц, располагающихся рядом с аэропортом Динамо :

Динамо
Хабаровск
Хабаровский край 48° 26' 12.7212" N, 135° 8' 30.5412" E
Динамо
Хабаровск
Хабаровский край 48° 26' 12.7212" N, 135° 8' 30.5412" E
Код аэродрома ИКАО: 
XHHD
Код аэродрома RU: 
ЬХХД
Координаты: 
N48.43687° E135.14182°
Превышение над уровнем моря : 
59
Основная полоса: 
06/24
Курс магнитный: 
056,2/236,2
Длина основной ВПП: 
800
Ширина основной ВПП: 
60
Покрытие основной ВПП: 
Нетвёрдое
Освещение ВПП: 
Нет
Тип: 
Аэродром
Класс аэродрома: 
Принадлежность: 
ДОСААФ
Статус: 
Действующий
Сайт: 
E-mail аэродрома: 
Страна: 
Россия
Регион: 
Хабаровский край
Город: 
Хабаровск
Дополнительная информация: 
Оператор: нет данных.

Найти трансфер

С помощью этой формы Вы можете найти трансфер из аэропорта Динамо в город, аэропорт или вокзал:

Карта места

Javascript is required to view this map.

Погода в аэропортах:

Авиационная погода в Яссах

Регион: 
Погода METAR: 
LRIA 281930Z 13009KT 9999 -RA FEW020 FEW040CB 18/15 Q1015
Время наблюдения: 
2020-09-28T19:30:00Z
Температура C: 
18.0
Точка росы: 
15.0
Направление ветра: 
130
Скорость ветра (узлы): 
9
Метеорологическая видимость: 
6.21
Явления погоды: 
-RA
Условия полета: 
VFR

Авиационная погода в Куусамо

Регион: 
Погода METAR: 
EFKS 281950Z AUTO 15006KT 1500 1200 R12/1900N BCFG VV001 09/09 Q1022
Время наблюдения: 
2020-09-28T19:50:00Z
Температура C: 
9.0
Точка росы: 
9.0
Направление ветра: 
150
Скорость ветра (узлы): 
6
Метеорологическая видимость: 
0.93
Явления погоды: 
BCFG
Условия полета: 
LIFR

Авиационная погода в Усть-Каменогорске

Регион: 
Погода METAR: 
UASK 282000Z 26002MPS 5000 BR BKN031 BKN083 04/03 Q1026 R30/090060 NOSIG RMK QFE743/0991
Время наблюдения: 
2020-09-28T20:00:00Z
Температура C: 
4.0
Точка росы: 
3.0
Направление ветра: 
260
Скорость ветра (узлы): 
4
Метеорологическая видимость: 
3.11
Явления погоды: 
BR
Условия полета: 
MVFR
Аэропорт подробнее: 

Авиационная погода в Елизово

Регион: 
Погода METAR: 
UHPP 281930Z 03004MPS 290V100 9999 -SHRA SCT040CB 06/05 Q1003 R16R/290345 NOSIG RMK MT OBSC QFE749/0999
Время наблюдения: 
2020-09-28T19:30:00Z
Температура C: 
6.0
Точка росы: 
5.0
Направление ветра: 
30
Скорость ветра (узлы): 
8
Метеорологическая видимость: 
6.21
Явления погоды: 
-SHRA
Условия полета: 
VFR
Аэропорт подробнее: